This is the latest recevied weather packets stored in our database for station/object DL5DI-H. If no packets are shown the sender has not sent any weather packets the latest 10 day(s).
| Time | Temp. | Humidity | Pressure | Rain* | Wind** | Luminosity | Snow |
|---|---|---|---|---|---|---|---|
| 1777451401 | 12.22° C | 44% | 1025.2 hPa | 0 mm | - | - | - |
| 1777450801 | 11.67° C | 44% | 1025.3 hPa | 0 mm | - | - | - |
| 1777450205 | 11.67° C | 45% | 1025.2 hPa | 0 mm | - | - | - |
| 1777449605 | 11.11° C | 46% | 1025.3 hPa | 0 mm | - | - | - |
| 1777449001 | 10.56° C | 48% | 1025.3 hPa | 0 mm | - | - | - |
| 1777448401 | 8.33° C | 56% | 1025 hPa | 0 mm | - | - | - |
| 1777447804 | 8.33° C | 56% | 1025 hPa | 0 mm | - | - | - |
| 1777447205 | 8.33° C | 56% | 1025 hPa | 0 mm | - | - | - |
| 1777446601 | 8.33° C | 56% | 1025 hPa | 0 mm | - | - | - |
| 1777446005 | 8.33° C | 56% | 1025 hPa | 0 mm | - | - | - |
| 1777445401 | 8.33° C | 55% | 1025 hPa | 0 mm | - | - | - |
| 1777444801 | 7.78° C | 59% | 1024.9 hPa | 0 mm | - | - | - |
| 1777444201 | 7.78° C | 62% | 1024.8 hPa | 0 mm | - | - | - |
| 1777443605 | 7.22° C | 64% | 1024.7 hPa | 0 mm | - | - | - |
| 1777443001 | 7.22° C | 64% | 1024.7 hPa | 0 mm | - | - | - |
| 1777442405 | 6.67° C | 64% | 1024.6 hPa | 0 mm | - | - | - |
| 1777441801 | 6.67° C | 64% | 1024.5 hPa | 0 mm | - | - | - |
| 1777441201 | 6.11° C | 63% | 1024.2 hPa | 0 mm | - | - | - |
| 1777440605 | 6.11° C | 63% | 1024.2 hPa | 0 mm | - | - | - |
| 1777440001 | 6.11° C | 63% | 1024.2 hPa | 0 mm | - | - | - |
| 1777439405 | 6.11° C | 63% | 1024.2 hPa | 0 mm | - | - | - |
| 1777438805 | 6.11° C | 63% | 1024.2 hPa | 0 mm | - | - | - |
| 1777438201 | 6.11° C | 63% | 1024.1 hPa | 0 mm | - | - | - |
| 1777437605 | 6.67° C | 62% | 1024 hPa | 0 mm | - | - | - |
| 1777437001 | 6.67° C | 61% | 1023.9 hPa | 0 mm | - | - | - |
* Rain latest hour (hover to see other rain measurements)
** Current wind speed in m/s (hover to see current wind gust speed)